»·PEaware :: N2RF KSFO-KMRY

N2RF :: KSFO-KMRY

FLIGHT INFORMATION

Flight Status: Arrived
Operator: Privately registered:
United States
More flights under this callsign
Pilot: Max W. (2591)
Aircraft: SOCATA TBM-900
(TBM9)
More flights by this aircraft type
Origin: KSFO San Francisco Intl
United States
Destination: KMRY Monterey Peninsula
United States
More flights between these airports :: More routes between these airports
Route: +GAPP7 SHOEY ZEBED
File this flight plan on PilotEdge
Remarks: DOING MENTORSHIP WITH N23EF
Altitude:
(Current/Filed)
9,000ft
Speed:
(Current/Filed)
250kts
Departed: 18-Oct-19 11:32 AM
Arrived: 18-Oct-19 11:56 AM
Distance/Time
Traveled:
67nm/0:23
Distance/Time
To Go:
Arrived

Flight Plot

Page will automatically refresh every two minutes.

Flight plan parsing failed; only flown route is shown


Map Options




Map Legend


Flown Route
Filed Route
Departure Airport
Arrival Airport
Navaid (VOR, NDB)
Fix

Horizontal Profiles

Position Reports

Time Latitude Longitude Heading Altitude Ground
Speed
18-Oct-19 11:05 37.627213 -122.383696 297 15ft 0kts
18-Oct-19 11:05 37.627213 -122.383696 297 15ft 0kts
18-Oct-19 11:06 37.627213 -122.383696 297 15ft 0kts
18-Oct-19 11:07 37.627213 -122.383696 297 15ft 0kts
18-Oct-19 11:08 37.627213 -122.383696 297 15ft 0kts
18-Oct-19 11:09 37.627213 -122.383696 297 15ft 0kts
18-Oct-19 11:10 37.627217 -122.383708 295 15ft 0kts
18-Oct-19 11:11 37.627217 -122.383708 295 15ft 0kts
18-Oct-19 11:12 37.627217 -122.383708 295 15ft 0kts
18-Oct-19 11:13 37.627217 -122.383708 295 15ft 0kts
18-Oct-19 11:14 37.627217 -122.383708 295 15ft 0kts
18-Oct-19 11:15 37.627217 -122.383708 295 15ft 0kts
18-Oct-19 11:16 37.627217 -122.383708 295 15ft 0kts
18-Oct-19 11:17 37.627217 -122.383708 295 15ft 0kts
18-Oct-19 11:18 37.627217 -122.383708 295 15ft 0kts
18-Oct-19 11:19 37.627217 -122.383708 295 15ft 0kts
18-Oct-19 11:20 37.627217 -122.383708 295 15ft 0kts
18-Oct-19 11:21 37.627217 -122.383708 295 15ft 0kts
18-Oct-19 11:22 37.627217 -122.383708 295 15ft 0kts
18-Oct-19 11:23 37.627217 -122.383708 295 15ft 0kts
18-Oct-19 11:24 37.627217 -122.383708 295 15ft 0kts
18-Oct-19 11:25 37.627217 -122.383708 295 15ft 0kts
18-Oct-19 11:26 37.625142 -122.381034 118 15ft 30kts
18-Oct-19 11:27 37.622617 -122.375343 165 15ft 0kts
18-Oct-19 11:28 37.622616 -122.375342 168 15ft 0kts
18-Oct-19 11:29 37.622440 -122.375405 205 15ft 0kts
18-Oct-19 11:30 37.622371 -122.375484 227 15ft 6kts
18-Oct-19 11:31 37.631164 -122.399880 298 16ft 150kts
18-Oct-19 11:32 37.622932 -122.378575 187 15ft 0kts
18-Oct-19 11:33 37.622931 -122.378575 187 15ft 0kts
18-Oct-19 11:34 37.633078 -122.405725 296 1487ft 134kts
18-Oct-19 11:35 37.629360 -122.442732 214 4545ft 142kts
18-Oct-19 11:36 37.594159 -122.465505 213 6846ft 148kts
18-Oct-19 11:37 37.547197 -122.497714 213 7012ft 227kts
18-Oct-19 11:38 37.486917 -122.541610 213 7000ft 261kts
18-Oct-19 11:39 37.424440 -122.532999 130 7010ft 270kts
18-Oct-19 11:40 37.365046 -122.475974 148 6999ft 269kts
18-Oct-19 11:41 37.302407 -122.424187 148 6999ft 269kts
18-Oct-19 11:42 37.239462 -122.372512 148 6998ft 269kts
18-Oct-19 11:43 37.176451 -122.320882 147 6997ft 270kts
18-Oct-19 11:44 37.113494 -122.269395 147 6995ft 270kts
18-Oct-19 11:45 37.050614 -122.218075 146 6996ft 270kts
18-Oct-19 11:46 36.987528 -122.166684 146 6999ft 269kts
18-Oct-19 11:47 36.924655 -122.115557 146 7001ft 269kts
18-Oct-19 11:48 36.863616 -122.066039 146 6998ft 269kts
18-Oct-19 11:49 36.800333 -122.014802 146 6611ft 282kts
18-Oct-19 11:50 36.734477 -121.957087 136 5112ft 290kts
18-Oct-19 11:51 36.677024 -121.889228 135 3495ft 273kts
18-Oct-19 11:52 36.634437 -121.825433 122 2689ft 216kts
18-Oct-19 11:53 36.589841 -121.796554 203 1658ft 165kts
18-Oct-19 11:54 36.581816 -121.828119 310 472ft 75kts
18-Oct-19 11:55 36.587244 -121.838586 11 165ft 10kts
18-Oct-19 11:56 36.587902 -121.838615 296 165ft 0kts
18-Oct-19 11:57 36.587902 -121.838615 296 165ft 0kts

Navigation Log

Ident Type
Flight plan parsing failed, navigation log unavailable